sensor_id;sensor_type;location;lat;lon;timestamp;pressure;altitude;pressure_sealevel;temperature;humidity
39265;BME280;42646;51.910;7.724;2023-10-31T00:01:28;98790.16;;;13.24;100.00
39265;BME280;42646;51.910;7.724;2023-10-31T00:03:56;98785.63;;;13.24;100.00
39265;BME280;42646;51.910;7.724;2023-10-31T00:06:25;98789.13;;;13.25;100.00
39265;BME280;42646;51.910;7.724;2023-10-31T00:08:53;98782.97;;;13.24;100.00
39265;BME280;42646;51.910;7.724;2023-10-31T00:11:21;98775.56;;;13.26;100.00
39265;BME280;42646;51.910;7.724;2023-10-31T00:13:48;98780.06;;;13.26;100.00
39265;BME280;42646;51.910;7.724;2023-10-31T00:16:16;98782.75;;;13.26;100.00
39265;BME280;42646;51.910;7.724;2023-10-31T00:18:44;98781.09;;;13.25;100.00
39265;BME280;42646;51.910;7.724;2023-10-31T00:21:11;98779.25;;;13.25;100.00
39265;BME280;42646;51.910;7.724;2023-10-31T00:23:47;98779.03;;;13.27;100.00
39265;BME280;42646;51.910;7.724;2023-10-31T00:26:15;98772.88;;;13.26;100.00
39265;BME280;42646;51.910;7.724;2023-10-31T00:28:49;98779.03;;;13.27;100.00
39265;BME280;42646;51.910;7.724;2023-10-31T00:31:17;98787.88;;;13.27;100.00
39265;BME280;42646;51.910;7.724;2023-10-31T00:33:45;98791.56;;;13.26;100.00
39265;BME280;42646;51.910;7.724;2023-10-31T00:36:13;98791.38;;;13.28;100.00
39265;BME280;42646;51.910;7.724;2023-10-31T00:42:02;98781.31;;;13.30;100.00
39265;BME280;42646;51.910;7.724;2023-10-31T00:44:30;98782.53;;;13.27;100.00
39265;BME280;42646;51.910;7.724;2023-10-31T00:46:57;98769.81;;;13.29;100.00
39265;BME280;42646;51.910;7.724;2023-10-31T00:49:25;98764.47;;;13.29;100.00
39265;BME280;42646;51.910;7.724;2023-10-31T00:51:53;98775.16;;;13.29;100.00
39265;BME280;42646;51.910;7.724;2023-10-31T00:54:21;98764.47;;;13.29;100.00
39265;BME280;42646;51.910;7.724;2023-10-31T00:56:48;98763.25;;;13.32;100.00
39265;BME280;42646;51.910;7.724;2023-10-31T00:59:17;98765.09;;;13.31;100.00
39265;BME280;42646;51.910;7.724;2023-10-31T01:01:45;98764.28;;;13.31;100.00
39265;BME280;42646;51.910;7.724;2023-10-31T01:04:13;98770.22;;;13.33;100.00
39265;BME280;42646;51.910;7.724;2023-10-31T01:06:41;98766.53;;;13.34;100.00
39265;BME280;42646;51.910;7.724;2023-10-31T01:09:09;98767.16;;;13.29;100.00
39265;BME280;42646;51.910;7.724;2023-10-31T01:11:37;98765.09;;;13.31;100.00
39265;BME280;42646;51.910;7.724;2023-10-31T01:14:05;98778.44;;;13.31;100.00
39265;BME280;42646;51.910;7.724;2023-10-31T01:16:34;98773.91;;;13.25;100.00
39265;BME280;42646;51.910;7.724;2023-10-31T01:19:02;98769.34;;;13.19;100.00
39265;BME280;42646;51.910;7.724;2023-10-31T01:21:30;98768.75;;;13.17;100.00
39265;BME280;42646;51.910;7.724;2023-10-31T01:23:58;98782.69;;;13.19;100.00
39265;BME280;42646;51.910;7.724;2023-10-31T01:26:26;98770.75;;;13.08;100.00
39265;BME280;42646;51.910;7.724;2023-10-31T01:28:53;98793.56;;;13.11;100.00
39265;BME280;42646;51.910;7.724;2023-10-31T01:31:21;98797.22;;;13.03;100.00
39265;BME280;42646;51.910;7.724;2023-10-31T01:33:51;98805.41;;;12.95;100.00
39265;BME280;42646;51.910;7.724;2023-10-31T01:36:18;98813.81;;;12.92;100.00
39265;BME280;42646;51.910;7.724;2023-10-31T01:38:46;98817.69;;;12.90;100.00
39265;BME280;42646;51.910;7.724;2023-10-31T01:41:14;98826.47;;;12.77;100.00
39265;BME280;42646;51.910;7.724;2023-10-31T01:43:42;98818.44;;;12.70;100.00
39265;BME280;42646;51.910;7.724;2023-10-31T01:46:10;98838.47;;;12.60;100.00
39265;BME280;42646;51.910;7.724;2023-10-31T01:48:38;98840.25;;;12.46;100.00
39265;BME280;42646;51.910;7.724;2023-10-31T01:51:08;98854.53;;;12.38;100.00
39265;BME280;42646;51.910;7.724;2023-10-31T01:53:37;98841.34;;;12.30;100.00
39265;BME280;42646;51.910;7.724;2023-10-31T01:56:05;98849.09;;;12.25;100.00
39265;BME280;42646;51.910;7.724;2023-10-31T01:58:35;98846.59;;;12.17;100.00
39265;BME280;42646;51.910;7.724;2023-10-31T02:01:05;98847.97;;;12.13;100.00
39265;BME280;42646;51.910;7.724;2023-10-31T02:03:33;98851.38;;;12.00;100.00
39265;BME280;42646;51.910;7.724;2023-10-31T02:06:01;98842.91;;;11.96;100.00
39265;BME280;42646;51.910;7.724;2023-10-31T02:08:31;98848.19;;;11.90;100.00
39265;BME280;42646;51.910;7.724;2023-10-31T02:10:59;98857.56;;;11.86;100.00
39265;BME280;42646;51.910;7.724;2023-10-31T02:13:26;98853.72;;;11.73;100.00
39265;BME280;42646;51.910;7.724;2023-10-31T02:15:54;98864.16;;;11.68;100.00
39265;BME280;42646;51.910;7.724;2023-10-31T02:18:22;98876.63;;;11.68;100.00
39265;BME280;42646;51.910;7.724;2023-10-31T02:20:49;98878.97;;;11.56;100.00
39265;BME280;42646;51.910;7.724;2023-10-31T02:23:18;98890.06;;;11.60;100.00
39265;BME280;42646;51.910;7.724;2023-10-31T02:25:46;98894.03;;;11.49;100.00
39265;BME280;42646;51.910;7.724;2023-10-31T02:28:14;98900.94;;;11.43;100.00
39265;BME280;42646;51.910;7.724;2023-10-31T02:30:44;98894.38;;;11.39;100.00
39265;BME280;42646;51.910;7.724;2023-10-31T02:33:11;98896.00;;;11.40;100.00
39265;BME280;42646;51.910;7.724;2023-10-31T02:35:39;98909.94;;;11.42;100.00
39265;BME280;42646;51.910;7.724;2023-10-31T02:38:07;98910.06;;;11.34;100.00
39265;BME280;42646;51.910;7.724;2023-10-31T02:40:36;98907.06;;;11.22;100.00
39265;BME280;42646;51.910;7.724;2023-10-31T02:43:04;98919.53;;;11.22;100.00
39265;BME280;42646;51.910;7.724;2023-10-31T02:45:32;98914.75;;;11.17;100.00
39265;BME280;42646;51.910;7.724;2023-10-31T02:48:00;98927.06;;;11.18;100.00
39265;BME280;42646;51.910;7.724;2023-10-31T02:50:28;98929.81;;;11.10;100.00
39265;BME280;42646;51.910;7.724;2023-10-31T02:52:55;98930.19;;;11.07;100.00
39265;BME280;42646;51.910;7.724;2023-10-31T02:55:23;98933.03;;;11.06;100.00
39265;BME280;42646;51.910;7.724;2023-10-31T02:57:52;98956.69;;;11.01;100.00
39265;BME280;42646;51.910;7.724;2023-10-31T03:00:20;98963.22;;;10.98;100.00
39265;BME280;42646;51.910;7.724;2023-10-31T03:02:48;98977.34;;;10.99;100.00
39265;BME280;42646;51.910;7.724;2023-10-31T03:05:16;98972.22;;;10.97;100.00
39265;BME280;42646;51.910;7.724;2023-10-31T03:07:44;98977.69;;;10.95;100.00
39265;BME280;42646;51.910;7.724;2023-10-31T03:10:12;98978.44;;;10.89;100.00
39265;BME280;42646;51.910;7.724;2023-10-31T03:12:40;98979.25;;;10.90;100.00
39265;BME280;42646;51.910;7.724;2023-10-31T03:15:10;98977.97;;;10.86;100.00
39265;BME280;42646;51.910;7.724;2023-10-31T03:17:37;98980.44;;;10.87;100.00
39265;BME280;42646;51.910;7.724;2023-10-31T03:20:06;98987.78;;;10.85;100.00
39265;BME280;42646;51.910;7.724;2023-10-31T03:22:35;98996.94;;;10.83;100.00
39265;BME280;42646;51.910;7.724;2023-10-31T03:25:04;98997.97;;;10.82;100.00
39265;BME280;42646;51.910;7.724;2023-10-31T03:27:32;98997.25;;;10.88;100.00
39265;BME280;42646;51.910;7.724;2023-10-31T03:30:00;98999.91;;;10.88;100.00
39265;BME280;42646;51.910;7.724;2023-10-31T03:32:29;99004.63;;;10.78;100.00
39265;BME280;42646;51.910;7.724;2023-10-31T03:34:56;99007.13;;;10.79;100.00
39265;BME280;42646;51.910;7.724;2023-10-31T03:37:24;99016.28;;;10.77;100.00
39265;BME280;42646;51.910;7.724;2023-10-31T03:39:52;99009.03;;;10.70;100.00
39265;BME280;42646;51.910;7.724;2023-10-31T03:42:20;99010.22;;;10.68;100.00
39265;BME280;42646;51.910;7.724;2023-10-31T03:44:47;99016.72;;;10.65;100.00
39265;BME280;42646;51.910;7.724;2023-10-31T03:47:15;99022.84;;;10.66;100.00
39265;BME280;42646;51.910;7.724;2023-10-31T03:49:44;99027.34;;;10.65;100.00
39265;BME280;42646;51.910;7.724;2023-10-31T03:52:12;99026.53;;;10.65;100.00
39265;BME280;42646;51.910;7.724;2023-10-31T03:54:39;99028.88;;;10.60;100.00
39265;BME280;42646;51.910;7.724;2023-10-31T03:57:07;99028.06;;;10.59;100.00
39265;BME280;42646;51.910;7.724;2023-10-31T03:59:36;99035.03;;;10.60;100.00
39265;BME280;42646;51.910;7.724;2023-10-31T04:02:05;99037.69;;;10.60;100.00
39265;BME280;42646;51.910;7.724;2023-10-31T04:04:32;99043.19;;;10.59;100.00
39265;BME280;42646;51.910;7.724;2023-10-31T04:07:01;99049.00;;;10.62;100.00
39265;BME280;42646;51.910;7.724;2023-10-31T04:09:29;99056.88;;;10.56;100.00
39265;BME280;42646;51.910;7.724;2023-10-31T04:11:57;99053.84;;;10.59;100.00
39265;BME280;42646;51.910;7.724;2023-10-31T04:14:25;99058.50;;;10.57;100.00
39265;BME280;42646;51.910;7.724;2023-10-31T04:16:53;99062.59;;;10.67;100.00
39265;BME280;42646;51.910;7.724;2023-10-31T04:19:21;99062.13;;;10.64;100.00
39265;BME280;42646;51.910;7.724;2023-10-31T04:21:48;99063.31;;;10.61;100.00
39265;BME280;42646;51.910;7.724;2023-10-31T04:24:17;99062.00;;;10.57;100.00
39265;BME280;42646;51.910;7.724;2023-10-31T04:26:45;99067.94;;;10.59;100.00
39265;BME280;42646;51.910;7.724;2023-10-31T04:29:13;99077.13;;;10.57;100.00
39265;BME280;42646;51.910;7.724;2023-10-31T04:31:40;99071.28;;;10.61;100.00
39265;BME280;42646;51.910;7.724;2023-10-31T04:34:10;99082.75;;;10.62;100.00
39265;BME280;42646;51.910;7.724;2023-10-31T04:36:38;99086.38;;;10.61;100.00
39265;BME280;42646;51.910;7.724;2023-10-31T04:39:06;99083.56;;;10.62;100.00
39265;BME280;42646;51.910;7.724;2023-10-31T04:41:35;99089.91;;;10.61;100.00
39265;BME280;42646;51.910;7.724;2023-10-31T04:44:03;99083.72;;;10.61;100.00
39265;BME280;42646;51.910;7.724;2023-10-31T04:46:31;99080.72;;;10.64;100.00
39265;BME280;42646;51.910;7.724;2023-10-31T04:48:59;99082.75;;;10.62;100.00
39265;BME280;42646;51.910;7.724;2023-10-31T04:51:26;99081.91;;;10.61;100.00
39265;BME280;42646;51.910;7.724;2023-10-31T04:53:54;99086.03;;;10.64;100.00
39265;BME280;42646;51.910;7.724;2023-10-31T04:56:22;99089.19;;;10.67;100.00
39265;BME280;42646;51.910;7.724;2023-10-31T04:58:51;99078.38;;;10.69;100.00
39265;BME280;42646;51.910;7.724;2023-10-31T05:01:19;99077.06;;;10.65;100.00
39265;BME280;42646;51.910;7.724;2023-10-31T05:03:47;99075.22;;;10.65;100.00
39265;BME280;42646;51.910;7.724;2023-10-31T05:06:24;99079.72;;;10.65;100.00
39265;BME280;42646;51.910;7.724;2023-10-31T05:08:52;99086.69;;;10.66;100.00
39265;BME280;42646;51.910;7.724;2023-10-31T05:11:20;99094.66;;;10.66;100.00
39265;BME280;42646;51.910;7.724;2023-10-31T05:13:48;99085.03;;;10.65;100.00
39265;BME280;42646;51.910;7.724;2023-10-31T05:16:17;99076.22;;;10.64;100.00
39265;BME280;42646;51.910;7.724;2023-10-31T05:18:44;99084.84;;;10.66;100.00
39265;BME280;42646;51.910;7.724;2023-10-31T05:21:12;99089.66;;;10.71;100.00
39265;BME280;42646;51.910;7.724;2023-10-31T05:23:40;99082.03;;;10.68;100.00
39265;BME280;42646;51.910;7.724;2023-10-31T05:26:07;99078.72;;;10.66;100.00
39265;BME280;42646;51.910;7.724;2023-10-31T05:28:35;99086.97;;;10.71;100.00
39265;BME280;42646;51.910;7.724;2023-10-31T05:31:03;99081.03;;;10.69;100.00
39265;BME280;42646;51.910;7.724;2023-10-31T05:33:32;99082.88;;;10.68;100.00
39265;BME280;42646;51.910;7.724;2023-10-31T05:36:00;99078.28;;;10.77;100.00
39265;BME280;42646;51.910;7.724;2023-10-31T05:38:28;99095.25;;;10.76;100.00
39265;BME280;42646;51.910;7.724;2023-10-31T05:40:56;99092.13;;;10.73;100.00
39265;BME280;42646;51.910;7.724;2023-10-31T05:43:24;99096.81;;;10.70;100.00
39265;BME280;42646;51.910;7.724;2023-10-31T05:45:51;99104.25;;;10.75;100.00
39265;BME280;42646;51.910;7.724;2023-10-31T05:48:19;99106.44;;;10.72;100.00
39265;BME280;42646;51.910;7.724;2023-10-31T05:50:48;99110.09;;;10.70;100.00
39265;BME280;42646;51.910;7.724;2023-10-31T05:53:15;99106.44;;;10.72;100.00
39265;BME280;42646;51.910;7.724;2023-10-31T05:55:43;99108.25;;;10.71;100.00
39265;BME280;42646;51.910;7.724;2023-10-31T05:58:11;99116.72;;;10.75;100.00
39265;BME280;42646;51.910;7.724;2023-10-31T06:00:39;99119.00;;;10.78;100.00
39265;BME280;42646;51.910;7.724;2023-10-31T06:03:07;99129.66;;;10.78;100.00
39265;BME280;42646;51.910;7.724;2023-10-31T06:05:35;99139.66;;;10.76;100.00
39265;BME280;42646;51.910;7.724;2023-10-31T06:08:04;99138.84;;;10.75;100.00
39265;BME280;42646;51.910;7.724;2023-10-31T06:10:32;99139.47;;;10.77;100.00
39265;BME280;42646;51.910;7.724;2023-10-31T06:13:00;99153.97;;;10.75;100.00
39265;BME280;42646;51.910;7.724;2023-10-31T06:15:27;99158.09;;;10.77;100.00
39265;BME280;42646;51.910;7.724;2023-10-31T06:17:55;99158.47;;;10.74;100.00
39265;BME280;42646;51.910;7.724;2023-10-31T06:20:23;99167.25;;;10.75;100.00
39265;BME280;42646;51.910;7.724;2023-10-31T06:22:51;99172.59;;;10.75;100.00
39265;BME280;42646;51.910;7.724;2023-10-31T06:25:20;99180.06;;;10.71;100.00
39265;BME280;42646;51.910;7.724;2023-10-31T06:27:47;99185.41;;;10.71;100.00
39265;BME280;42646;51.910;7.724;2023-10-31T06:30:16;99185.75;;;10.68;100.00
39265;BME280;42646;51.910;7.724;2023-10-31T06:32:54;99200.03;;;10.67;100.00
39265;BME280;42646;51.910;7.724;2023-10-31T06:35:22;99202.69;;;10.67;100.00
39265;BME280;42646;51.910;7.724;2023-10-31T06:37:51;99203.00;;;10.72;100.00
39265;BME280;42646;51.910;7.724;2023-10-31T06:40:20;99214.34;;;10.66;100.00
39265;BME280;42646;51.910;7.724;2023-10-31T06:42:48;99218.66;;;10.67;100.00
39265;BME280;42646;51.910;7.724;2023-10-31T06:45:15;99229.34;;;10.59;100.00
39265;BME280;42646;51.910;7.724;2023-10-31T06:47:43;99230.00;;;10.61;100.00
39265;BME280;42646;51.910;7.724;2023-10-31T06:50:11;99235.84;;;10.56;100.00
39265;BME280;42646;51.910;7.724;2023-10-31T06:52:39;99232.50;;;10.54;100.00
39265;BME280;42646;51.910;7.724;2023-10-31T06:55:07;99239.66;;;10.54;100.00
39265;BME280;42646;51.910;7.724;2023-10-31T06:57:36;99242.69;;;10.51;100.00
39265;BME280;42646;51.910;7.724;2023-10-31T07:00:05;99252.97;;;10.54;100.00
39265;BME280;42646;51.910;7.724;2023-10-31T07:02:35;99253.78;;;10.54;100.00
39265;BME280;42646;51.910;7.724;2023-10-31T07:05:04;99251.63;;;10.58;100.00
39265;BME280;42646;51.910;7.724;2023-10-31T07:07:32;99262.59;;;10.55;100.00
39265;BME280;42646;51.910;7.724;2023-10-31T07:10:00;99260.44;;;10.58;100.00
39265;BME280;42646;51.910;7.724;2023-10-31T07:12:27;99267.41;;;10.59;100.00
39265;BME280;42646;51.910;7.724;2023-10-31T07:14:57;99269.22;;;10.59;100.00
39265;BME280;42646;51.910;7.724;2023-10-31T07:17:26;99277.38;;;10.57;100.00
39265;BME280;42646;51.910;7.724;2023-10-31T07:19:54;99275.75;;;10.56;100.00
39265;BME280;42646;51.910;7.724;2023-10-31T07:22:22;99279.03;;;10.58;100.00
39265;BME280;42646;51.910;7.724;2023-10-31T07:24:51;99277.56;;;10.56;100.00
39265;BME280;42646;51.910;7.724;2023-10-31T07:27:19;99285.19;;;10.59;100.00
39265;BME280;42646;51.910;7.724;2023-10-31T07:29:46;99281.19;;;10.55;100.00
39265;BME280;42646;51.910;7.724;2023-10-31T07:32:16;99289.53;;;10.52;100.00
39265;BME280;42646;51.910;7.724;2023-10-31T07:34:44;99280.06;;;10.49;100.00
39265;BME280;42646;51.910;7.724;2023-10-31T07:37:12;99284.72;;;10.47;100.00
39265;BME280;42646;51.910;7.724;2023-10-31T07:39:40;99281.25;;;10.47;100.00
39265;BME280;42646;51.910;7.724;2023-10-31T07:42:08;99279.41;;;10.47;100.00
39265;BME280;42646;51.910;7.724;2023-10-31T07:44:36;99283.06;;;10.46;100.00
39265;BME280;42646;51.910;7.724;2023-10-31T07:47:04;99288.72;;;10.43;100.00
39265;BME280;42646;51.910;7.724;2023-10-31T07:49:33;99292.38;;;10.42;100.00
39265;BME280;42646;51.910;7.724;2023-10-31T07:52:00;99287.91;;;10.42;100.00
39265;BME280;42646;51.910;7.724;2023-10-31T07:54:28;99291.22;;;10.45;100.00
39265;BME280;42646;51.910;7.724;2023-10-31T07:56:56;99297.38;;;10.45;100.00
39265;BME280;42646;51.910;7.724;2023-10-31T07:59:23;99301.50;;;10.48;100.00
39265;BME280;42646;51.910;7.724;2023-10-31T08:01:51;99306.31;;;10.52;100.00
39265;BME280;42646;51.910;7.724;2023-10-31T08:04:19;99308.81;;;10.54;100.00
39265;BME280;42646;51.910;7.724;2023-10-31T08:06:48;99311.47;;;10.54;100.00
39265;BME280;42646;51.910;7.724;2023-10-31T08:09:16;99311.28;;;10.63;100.00
39265;BME280;42646;51.910;7.724;2023-10-31T08:11:44;99313.28;;;10.61;100.00
39265;BME280;42646;51.910;7.724;2023-10-31T08:14:11;99317.41;;;10.64;100.00
39265;BME280;42646;51.910;7.724;2023-10-31T08:16:39;99315.91;;;10.69;100.00
39265;BME280;42646;51.910;7.724;2023-10-31T08:19:07;99315.53;;;10.73;100.00
39265;BME280;42646;51.910;7.724;2023-10-31T08:21:35;99325.34;;;10.72;100.00
39265;BME280;42646;51.910;7.724;2023-10-31T08:24:06;99321.38;;;10.76;100.00
39265;BME280;42646;51.910;7.724;2023-10-31T08:26:34;99327.00;;;10.73;100.00
39265;BME280;42646;51.910;7.724;2023-10-31T08:29:02;99334.84;;;10.75;100.00
39265;BME280;42646;51.910;7.724;2023-10-31T08:31:30;99333.66;;;10.77;100.00
39265;BME280;42646;51.910;7.724;2023-10-31T08:33:57;99332.19;;;10.75;100.00
39265;BME280;42646;51.910;7.724;2023-10-31T08:36:25;99342.47;;;10.78;100.00
39265;BME280;42646;51.910;7.724;2023-10-31T08:38:53;99337.00;;;10.79;100.00
39265;BME280;42646;51.910;7.724;2023-10-31T08:41:22;99335.63;;;10.83;100.00
39265;BME280;42646;51.910;7.724;2023-10-31T08:43:50;99341.25;;;10.88;100.00
39265;BME280;42646;51.910;7.724;2023-10-31T08:46:17;99343.75;;;10.90;100.00
39265;BME280;42646;51.910;7.724;2023-10-31T08:48:45;99338.91;;;10.93;100.00
39265;BME280;42646;51.910;7.724;2023-10-31T08:51:13;99347.91;;;10.92;100.00
39265;BME280;42646;51.910;7.724;2023-10-31T08:53:40;99340.75;;;10.93;100.00
39265;BME280;42646;51.910;7.724;2023-10-31T08:56:08;99342.91;;;10.98;100.00
39265;BME280;42646;51.910;7.724;2023-10-31T08:58:37;99343.56;;;11.00;100.00
39265;BME280;42646;51.910;7.724;2023-10-31T09:01:04;99353.00;;;11.10;100.00
39265;BME280;42646;51.910;7.724;2023-10-31T09:03:32;99350.84;;;11.06;100.00
39265;BME280;42646;51.910;7.724;2023-10-31T09:06:00;99359.59;;;11.14;100.00
39265;BME280;42646;51.910;7.724;2023-10-31T09:08:28;99359.75;;;11.21;100.00
39265;BME280;42646;51.910;7.724;2023-10-31T09:10:56;99365.69;;;11.31;100.00
39265;BME280;42646;51.910;7.724;2023-10-31T09:13:24;99363.13;;;11.38;100.00
39265;BME280;42646;51.910;7.724;2023-10-31T09:15:53;99370.16;;;11.39;100.00
39265;BME280;42646;51.910;7.724;2023-10-31T09:18:20;99371.94;;;11.46;100.00
39265;BME280;42646;51.910;7.724;2023-10-31T09:20:48;99379.72;;;11.48;100.00
39265;BME280;42646;51.910;7.724;2023-10-31T09:23:16;99390.81;;;11.60;100.00
39265;BME280;42646;51.910;7.724;2023-10-31T09:25:44;99385.00;;;11.56;100.00
39265;BME280;42646;51.910;7.724;2023-10-31T09:28:12;99391.19;;;11.57;100.00
39265;BME280;42646;51.910;7.724;2023-10-31T09:30:40;99398.16;;;11.58;100.00
39265;BME280;42646;51.910;7.724;2023-10-31T09:33:11;99397.34;;;11.57;100.00
39265;BME280;42646;51.910;7.724;2023-10-31T09:35:39;99405.44;;;11.64;100.00
39265;BME280;42646;51.910;7.724;2023-10-31T09:38:08;99408.13;;;11.64;100.00
39265;BME280;42646;51.910;7.724;2023-10-31T09:40:36;99413.44;;;11.64;100.00
39265;BME280;42646;51.910;7.724;2023-10-31T09:43:04;99415.44;;;11.62;100.00
39265;BME280;42646;51.910;7.724;2023-10-31T09:45:34;99412.78;;;11.62;100.00
39265;BME280;42646;51.910;7.724;2023-10-31T09:48:01;99415.44;;;11.62;100.00
39265;BME280;42646;51.910;7.724;2023-10-31T09:50:30;99422.25;;;11.64;100.00
39265;BME280;42646;51.910;7.724;2023-10-31T09:52:59;99418.59;;;11.65;100.00
39265;BME280;42646;51.910;7.724;2023-10-31T09:55:28;99434.38;;;11.67;100.00
39265;BME280;42646;51.910;7.724;2023-10-31T09:57:56;99442.75;;;11.64;100.00
39265;BME280;42646;51.910;7.724;2023-10-31T10:00:23;99440.91;;;11.64;100.00
39265;BME280;42646;51.910;7.724;2023-10-31T10:02:51;99455.69;;;11.67;100.00
39265;BME280;42646;51.910;7.724;2023-10-31T10:05:20;99452.03;;;11.68;100.00
39265;BME280;42646;51.910;7.724;2023-10-31T10:07:55;99460.16;;;11.83;100.00
39265;BME280;42646;51.910;7.724;2023-10-31T10:10:22;99468.31;;;11.73;100.00
39265;BME280;42646;51.910;7.724;2023-10-31T10:12:51;99465.66;;;11.73;100.00
39265;BME280;42646;51.910;7.724;2023-10-31T10:15:19;99468.00;;;11.76;100.00
39265;BME280;42646;51.910;7.724;2023-10-31T10:17:51;99479.28;;;11.78;100.00
39265;BME280;42646;51.910;7.724;2023-10-31T10:20:19;99467.81;;;11.77;100.00
39265;BME280;42646;51.910;7.724;2023-10-31T10:22:47;99470.84;;;11.74;100.00
39265;BME280;42646;51.910;7.724;2023-10-31T10:25:17;99471.97;;;11.80;100.00
39265;BME280;42646;51.910;7.724;2023-10-31T10:27:46;99475.81;;;11.77;100.00
39265;BME280;42646;51.910;7.724;2023-10-31T10:30:15;99478.47;;;11.77;100.00
39265;BME280;42646;51.910;7.724;2023-10-31T10:32:43;99491.16;;;11.75;100.00
39265;BME280;42646;51.910;7.724;2023-10-31T10:35:11;99482.47;;;11.82;100.00
39265;BME280;42646;51.910;7.724;2023-10-31T10:37:39;99487.97;;;11.80;100.00
39265;BME280;42646;51.910;7.724;2023-10-31T10:40:10;99496.63;;;11.82;100.00
39265;BME280;42646;51.910;7.724;2023-10-31T10:42:44;99497.09;;;11.86;100.00
39265;BME280;42646;51.910;7.724;2023-10-31T10:45:13;99498.59;;;11.88;100.00
39265;BME280;42646;51.910;7.724;2023-10-31T10:47:45;99499.56;;;11.95;100.00
39265;BME280;42646;51.910;7.724;2023-10-31T10:50:13;99509.19;;;11.96;100.00
39265;BME280;42646;51.910;7.724;2023-10-31T10:52:44;99513.38;;;11.99;100.00
39265;BME280;42646;51.910;7.724;2023-10-31T10:55:21;99511.72;;;11.98;100.00
39265;BME280;42646;51.910;7.724;2023-10-31T10:58:01;99519.72;;;11.98;100.00
39265;BME280;42646;51.910;7.724;2023-10-31T11:00:31;99521.66;;;12.04;100.00
39265;BME280;42646;51.910;7.724;2023-10-31T11:03:01;99520.16;;;12.01;100.00
39265;BME280;42646;51.910;7.724;2023-10-31T11:05:30;99524.34;;;12.04;100.00
39265;BME280;42646;51.910;7.724;2023-10-31T11:07:59;99527.97;;;12.11;100.00
39265;BME280;42646;51.910;7.724;2023-10-31T11:10:27;99525.59;;;12.16;100.00
39265;BME280;42646;51.910;7.724;2023-10-31T11:12:57;99529.72;;;12.19;100.00
39265;BME280;42646;51.910;7.724;2023-10-31T11:15:26;99532.06;;;12.22;100.00
39265;BME280;42646;51.910;7.724;2023-10-31T11:17:55;99535.72;;;12.21;100.00
39265;BME280;42646;51.910;7.724;2023-10-31T11:20:24;99536.53;;;12.21;100.00
39265;BME280;42646;51.910;7.724;2023-10-31T11:22:55;99535.38;;;12.24;100.00
39265;BME280;42646;51.910;7.724;2023-10-31T11:25:24;99529.03;;;12.25;100.00
39265;BME280;42646;51.910;7.724;2023-10-31T11:28:12;99538.16;;;12.30;100.00
39265;BME280;42646;51.910;7.724;2023-10-31T11:30:41;99540.47;;;12.34;100.00
39265;BME280;42646;51.910;7.724;2023-10-31T11:33:12;99536.28;;;12.39;100.00
39265;BME280;42646;51.910;7.724;2023-10-31T11:35:41;99543.91;;;12.42;100.00
39265;BME280;42646;51.910;7.724;2023-10-31T11:38:11;99547.59;;;12.41;100.00
39265;BME280;42646;51.910;7.724;2023-10-31T11:40:58;99542.25;;;12.41;100.00
39265;BME280;42646;51.910;7.724;2023-10-31T11:43:45;99549.25;;;12.42;100.00
39265;BME280;42646;51.910;7.724;2023-10-31T11:46:22;99547.94;;;12.38;100.00
39265;BME280;42646;51.910;7.724;2023-10-31T11:48:52;99554.09;;;12.39;100.00
39265;BME280;42646;51.910;7.724;2023-10-31T11:51:21;99562.09;;;12.39;100.00
39265;BME280;42646;51.910;7.724;2023-10-31T11:53:49;99563.94;;;12.38;100.00
39265;BME280;42646;51.910;7.724;2023-10-31T11:56:19;99562.94;;;12.39;100.00
39265;BME280;42646;51.910;7.724;2023-10-31T11:58:56;99558.78;;;12.37;100.00
39265;BME280;42646;51.910;7.724;2023-10-31T12:01:24;99560.81;;;12.35;100.00
39265;BME280;42646;51.910;7.724;2023-10-31T12:03:52;99572.63;;;12.32;100.00
39265;BME280;42646;51.910;7.724;2023-10-31T12:06:20;99575.50;;;12.30;100.00
39265;BME280;42646;51.910;7.724;2023-10-31T12:08:48;99572.00;;;12.30;100.00
39265;BME280;42646;51.910;7.724;2023-10-31T12:11:17;99578.16;;;12.30;100.00
39265;BME280;42646;51.910;7.724;2023-10-31T12:13:54;99583.88;;;12.27;100.00
39265;BME280;42646;51.910;7.724;2023-10-31T12:16:25;99588.34;;;12.27;100.00
39265;BME280;42646;51.910;7.724;2023-10-31T12:18:55;99598.03;;;12.28;100.00
39265;BME280;42646;51.910;7.724;2023-10-31T12:21:39;99599.56;;;12.22;100.00
39265;BME280;42646;51.910;7.724;2023-10-31T12:24:09;99606.41;;;12.17;100.00
39265;BME280;42646;51.910;7.724;2023-10-31T12:26:38;99609.22;;;12.15;100.00
39265;BME280;42646;51.910;7.724;2023-10-31T12:29:10;99612.06;;;12.14;100.00
39265;BME280;42646;51.910;7.724;2023-10-31T12:31:46;99612.06;;;12.14;100.00
39265;BME280;42646;51.910;7.724;2023-10-31T12:34:15;99614.94;;;12.12;100.00
39265;BME280;42646;51.910;7.724;2023-10-31T12:36:45;99615.09;;;12.11;100.00
39265;BME280;42646;51.910;7.724;2023-10-31T12:39:13;99614.94;;;12.12;100.00
39265;BME280;42646;51.910;7.724;2023-10-31T12:41:43;99621.59;;;12.16;100.00
39265;BME280;42646;51.910;7.724;2023-10-31T12:44:13;99613.72;;;12.15;100.00
39265;BME280;42646;51.910;7.724;2023-10-31T12:46:43;99616.75;;;12.12;100.00
39265;BME280;42646;51.910;7.724;2023-10-31T12:49:12;99611.59;;;12.10;100.00
39265;BME280;42646;51.910;7.724;2023-10-31T12:51:55;99608.75;;;12.12;100.00
39265;BME280;42646;51.910;7.724;2023-10-31T12:54:28;99597.44;;;12.10;100.00
39265;BME280;42646;51.910;7.724;2023-10-31T12:56:59;99605.44;;;12.10;100.00
39265;BME280;42646;51.910;7.724;2023-10-31T12:59:27;99600.28;;;12.08;100.00
39265;BME280;42646;51.910;7.724;2023-10-31T13:01:55;99606.78;;;12.06;100.00